sensor_id;sensor_type;location;lat;lon;timestamp;pressure;altitude;pressure_sealevel;temperature;humidity
15817;BME280;8009;50.070;8.232;2023-09-12T00:02:10;99546.09;;;23.43;54.58
15817;BME280;8009;50.070;8.232;2023-09-12T00:04:39;99545.13;;;22.90;56.70
15817;BME280;8009;50.070;8.232;2023-09-12T00:07:07;99550.00;;;22.46;58.02
15817;BME280;8009;50.070;8.232;2023-09-12T00:09:38;99546.91;;;22.62;57.54
15817;BME280;8009;50.070;8.232;2023-09-12T00:12:06;99552.88;;;22.31;59.00
15817;BME280;8009;50.070;8.232;2023-09-12T00:14:35;99552.28;;;22.36;58.65
15817;BME280;8009;50.070;8.232;2023-09-12T00:17:03;99537.94;;;22.41;58.25
15817;BME280;8009;50.070;8.232;2023-09-12T00:19:32;99540.28;;;22.50;57.67
15817;BME280;8009;50.070;8.232;2023-09-12T00:22:00;99532.47;;;23.02;56.48
15817;BME280;8009;50.070;8.232;2023-09-12T00:24:29;99534.47;;;23.54;55.48
15817;BME280;8009;50.070;8.232;2023-09-12T00:27:00;99524.53;;;23.67;54.77
15817;BME280;8009;50.070;8.232;2023-09-12T00:29:30;99532.97;;;23.92;55.01
15817;BME280;8009;50.070;8.232;2023-09-12T00:31:58;99521.31;;;23.83;54.92
15817;BME280;8009;50.070;8.232;2023-09-12T00:34:26;99512.63;;;23.86;54.16
15817;BME280;8009;50.070;8.232;2023-09-12T00:36:55;99522.78;;;23.92;54.07
15817;BME280;8009;50.070;8.232;2023-09-12T00:39:23;99520.25;;;23.84;54.19
15817;BME280;8009;50.070;8.232;2023-09-12T00:41:51;99519.81;;;23.21;56.86
15817;BME280;8009;50.070;8.232;2023-09-12T00:44:22;99518.03;;;22.93;57.82
15817;BME280;8009;50.070;8.232;2023-09-12T00:46:52;99515.75;;;23.03;57.39
15817;BME280;8009;50.070;8.232;2023-09-12T00:49:23;99526.09;;;22.40;59.27
15817;BME280;8009;50.070;8.232;2023-09-12T00:51:54;99523.91;;;22.83;58.23
15817;BME280;8009;50.070;8.232;2023-09-12T00:54:24;99514.94;;;22.61;59.28
15817;BME280;8009;50.070;8.232;2023-09-12T00:56:53;99510.25;;;23.23;57.29
15817;BME280;8009;50.070;8.232;2023-09-12T00:59:24;99502.66;;;23.52;55.94
15817;BME280;8009;50.070;8.232;2023-09-12T01:01:52;99514.28;;;23.14;57.40
15817;BME280;8009;50.070;8.232;2023-09-12T01:04:21;99511.22;;;22.89;58.29
15817;BME280;8009;50.070;8.232;2023-09-12T01:06:50;99512.06;;;22.35;59.83
15817;BME280;8009;50.070;8.232;2023-09-12T01:09:19;99523.41;;;22.60;59.34
15817;BME280;8009;50.070;8.232;2023-09-12T01:11:48;99519.44;;;22.76;58.98
15817;BME280;8009;50.070;8.232;2023-09-12T01:14:16;99520.59;;;22.12;60.86
15817;BME280;8009;50.070;8.232;2023-09-12T01:16:47;99511.44;;;22.33;60.15
15817;BME280;8009;50.070;8.232;2023-09-12T01:19:17;99519.03;;;22.79;58.48
15817;BME280;8009;50.070;8.232;2023-09-12T01:22:21;99505.81;;;23.29;57.45
15817;BME280;8009;50.070;8.232;2023-09-12T01:25:29;99515.59;;;22.63;59.62
15817;BME280;8009;50.070;8.232;2023-09-12T01:28:05;99517.06;;;22.18;60.92
15817;BME280;8009;50.070;8.232;2023-09-12T01:30:35;99512.66;;;22.72;59.23
15817;BME280;8009;50.070;8.232;2023-09-12T01:33:04;99510.03;;;23.11;57.79
15817;BME280;8009;50.070;8.232;2023-09-12T01:35:32;99511.03;;;22.91;58.77
15817;BME280;8009;50.070;8.232;2023-09-12T01:38:01;99514.25;;;23.07;57.84
15817;BME280;8009;50.070;8.232;2023-09-12T01:40:34;99516.38;;;23.12;57.82
15817;BME280;8009;50.070;8.232;2023-09-12T01:43:06;99517.66;;;23.23;57.96
15817;BME280;8009;50.070;8.232;2023-09-12T01:45:35;99510.91;;;23.32;56.86
15817;BME280;8009;50.070;8.232;2023-09-12T01:48:05;99518.28;;;22.44;60.10
15817;BME280;8009;50.070;8.232;2023-09-12T01:50:35;99516.69;;;22.21;60.90
15817;BME280;8009;50.070;8.232;2023-09-12T01:53:04;99533.81;;;22.23;61.19
15817;BME280;8009;50.070;8.232;2023-09-12T01:55:33;99520.63;;;23.01;58.54
15817;BME280;8009;50.070;8.232;2023-09-12T01:58:07;99523.19;;;23.16;58.21
15817;BME280;8009;50.070;8.232;2023-09-12T02:00:36;99519.56;;;23.09;57.86
15817;BME280;8009;50.070;8.232;2023-09-12T02:03:04;99530.44;;;22.21;61.36
15817;BME280;8009;50.070;8.232;2023-09-12T02:05:32;99522.22;;;22.82;59.18
15817;BME280;8009;50.070;8.232;2023-09-12T02:08:03;99516.81;;;23.09;58.25
15817;BME280;8009;50.070;8.232;2023-09-12T02:10:31;99506.25;;;23.13;58.60
15817;BME280;8009;50.070;8.232;2023-09-12T02:12:59;99503.69;;;23.18;57.77
15817;BME280;8009;50.070;8.232;2023-09-12T02:15:30;99504.78;;;22.55;59.93
15817;BME280;8009;50.070;8.232;2023-09-12T02:17:59;99502.72;;;22.23;61.27
15817;BME280;8009;50.070;8.232;2023-09-12T02:20:28;99508.06;;;21.75;62.93
15817;BME280;8009;50.070;8.232;2023-09-12T02:22:56;99490.66;;;22.17;61.50
15817;BME280;8009;50.070;8.232;2023-09-12T02:25:25;99507.47;;;22.07;61.76
15817;BME280;8009;50.070;8.232;2023-09-12T02:27:53;99501.09;;;21.72;63.27
15817;BME280;8009;50.070;8.232;2023-09-12T02:30:21;99503.22;;;22.05;62.34
15817;BME280;8009;50.070;8.232;2023-09-12T02:32:52;99508.38;;;21.58;63.85
15817;BME280;8009;50.070;8.232;2023-09-12T02:35:20;99506.59;;;21.72;62.91
15817;BME280;8009;50.070;8.232;2023-09-12T02:37:49;99504.84;;;21.64;63.83
15817;BME280;8009;50.070;8.232;2023-09-12T02:40:18;99505.41;;;21.53;64.34
15817;BME280;8009;50.070;8.232;2023-09-12T02:42:46;99508.38;;;20.94;66.01
15817;BME280;8009;50.070;8.232;2023-09-12T02:45:15;99503.47;;;21.82;62.89
15817;BME280;8009;50.070;8.232;2023-09-12T02:47:43;99495.41;;;22.43;60.54
15817;BME280;8009;50.070;8.232;2023-09-12T02:50:14;99499.69;;;21.55;63.68
15817;BME280;8009;50.070;8.232;2023-09-12T02:52:42;99506.69;;;21.57;63.87
15817;BME280;8009;50.070;8.232;2023-09-12T02:55:12;99502.00;;;21.79;62.74
15817;BME280;8009;50.070;8.232;2023-09-12T02:57:40;99507.84;;;21.70;63.18
15817;BME280;8009;50.070;8.232;2023-09-12T03:00:17;99504.69;;;21.45;63.80
15817;BME280;8009;50.070;8.232;2023-09-12T03:06:02;99496.09;;;22.52;60.45
15817;BME280;8009;50.070;8.232;2023-09-12T03:08:30;99495.06;;;22.66;59.65
15817;BME280;8009;50.070;8.232;2023-09-12T03:11:00;99501.88;;;22.22;60.99
15817;BME280;8009;50.070;8.232;2023-09-12T03:13:30;99487.06;;;22.71;59.53
15817;BME280;8009;50.070;8.232;2023-09-12T03:35:15;99473.13;;;22.31;60.25
15817;BME280;8009;50.070;8.232;2023-09-12T04:32:00;99510.50;;;21.56;63.41
15817;BME280;8009;50.070;8.232;2023-09-12T04:34:28;99497.69;;;22.39;60.86
15817;BME280;8009;50.070;8.232;2023-09-12T04:36:59;99487.44;;;22.61;60.33
15817;BME280;8009;50.070;8.232;2023-09-12T04:45:35;99482.25;;;22.93;59.15
15817;BME280;8009;50.070;8.232;2023-09-12T04:48:04;99478.88;;;22.91;59.08
15817;BME280;8009;50.070;8.232;2023-09-12T04:50:33;99485.00;;;22.93;59.22
15817;BME280;8009;50.070;8.232;2023-09-12T04:53:01;99479.81;;;22.57;60.40
15817;BME280;8009;50.070;8.232;2023-09-12T05:05:06;99494.00;;;22.60;60.91
15817;BME280;8009;50.070;8.232;2023-09-12T05:07:34;99490.78;;;22.44;61.29
15817;BME280;8009;50.070;8.232;2023-09-12T05:10:03;99485.56;;;22.75;60.54
15817;BME280;8009;50.070;8.232;2023-09-12T05:12:32;99481.81;;;22.90;60.14
15817;BME280;8009;50.070;8.232;2023-09-12T05:15:00;99486.25;;;22.91;59.83
15817;BME280;8009;50.070;8.232;2023-09-12T05:17:29;99488.63;;;22.94;60.32
15817;BME280;8009;50.070;8.232;2023-09-12T05:19:57;99486.72;;;22.94;59.66
15817;BME280;8009;50.070;8.232;2023-09-12T05:22:29;99489.00;;;22.91;59.93
15817;BME280;8009;50.070;8.232;2023-09-12T05:24:57;99490.53;;;23.00;59.52
15817;BME280;8009;50.070;8.232;2023-09-12T05:27:26;99486.09;;;22.99;60.27
15817;BME280;8009;50.070;8.232;2023-09-12T05:29:54;99484.16;;;22.99;59.82
15817;BME280;8009;50.070;8.232;2023-09-12T05:32:23;99483.75;;;23.02;60.00
15817;BME280;8009;50.070;8.232;2023-09-12T05:34:51;99484.47;;;22.56;61.94
15817;BME280;8009;50.070;8.232;2023-09-12T05:37:19;99480.09;;;22.27;62.84
15817;BME280;8009;50.070;8.232;2023-09-12T05:39:51;99475.84;;;22.79;61.31
15817;BME280;8009;50.070;8.232;2023-09-12T05:42:19;99479.50;;;22.93;60.38
15817;BME280;8009;50.070;8.232;2023-09-12T05:44:48;99480.00;;;22.49;62.64
15817;BME280;8009;50.070;8.232;2023-09-12T05:47:18;99489.78;;;22.78;61.46
15817;BME280;8009;50.070;8.232;2023-09-12T05:49:47;99492.38;;;22.31;62.92
15817;BME280;8009;50.070;8.232;2023-09-12T05:52:15;99495.25;;;22.17;62.63
15817;BME280;8009;50.070;8.232;2023-09-12T05:54:44;99497.34;;;21.80;63.90
15817;BME280;8009;50.070;8.232;2023-09-12T05:57:15;99505.47;;;22.71;61.35
15817;BME280;8009;50.070;8.232;2023-09-12T05:59:46;99488.41;;;22.95;60.89
15817;BME280;8009;50.070;8.232;2023-09-12T06:02:15;99491.38;;;23.07;60.64
15817;BME280;8009;50.070;8.232;2023-09-12T06:04:46;99489.69;;;23.06;60.80
15817;BME280;8009;50.070;8.232;2023-09-12T06:07:16;99488.00;;;23.11;60.52
15817;BME280;8009;50.070;8.232;2023-09-12T06:09:45;99490.78;;;22.50;62.49
15817;BME280;8009;50.070;8.232;2023-09-12T06:12:17;99496.91;;;22.46;62.40
15817;BME280;8009;50.070;8.232;2023-09-12T06:14:46;99503.50;;;22.51;62.44
15817;BME280;8009;50.070;8.232;2023-09-12T06:17:15;99501.50;;;22.93;61.12
15817;BME280;8009;50.070;8.232;2023-09-12T06:19:44;99504.53;;;23.05;61.03
15817;BME280;8009;50.070;8.232;2023-09-12T06:22:14;99514.75;;;22.63;62.11
15817;BME280;8009;50.070;8.232;2023-09-12T06:24:49;99517.97;;;22.32;63.97
15817;BME280;8009;50.070;8.232;2023-09-12T06:27:23;99514.41;;;22.38;63.55
15817;BME280;8009;50.070;8.232;2023-09-12T06:29:51;99522.25;;;22.06;63.85
15817;BME280;8009;50.070;8.232;2023-09-12T06:32:19;99504.06;;;22.95;61.97
15817;BME280;8009;50.070;8.232;2023-09-12T06:34:48;99506.44;;;23.18;61.10
15817;BME280;8009;50.070;8.232;2023-09-12T06:37:16;99510.91;;;23.32;60.72
15817;BME280;8009;50.070;8.232;2023-09-12T06:39:44;99517.84;;;22.95;61.42
15817;BME280;8009;50.070;8.232;2023-09-12T06:42:13;99512.09;;;22.90;61.26
15817;BME280;8009;50.070;8.232;2023-09-12T06:44:44;99513.97;;;22.82;61.25
15817;BME280;8009;50.070;8.232;2023-09-12T06:47:12;99508.38;;;23.24;60.78
15817;BME280;8009;50.070;8.232;2023-09-12T06:49:41;99523.19;;;23.29;59.41
15817;BME280;8009;50.070;8.232;2023-09-12T06:52:10;99523.41;;;23.28;59.99
15817;BME280;8009;50.070;8.232;2023-09-12T06:54:39;99529.13;;;23.33;59.13
15817;BME280;8009;50.070;8.232;2023-09-12T06:57:07;99521.94;;;23.32;59.23
15817;BME280;8009;50.070;8.232;2023-09-12T06:59:35;99523.22;;;23.49;59.45
15817;BME280;8009;50.070;8.232;2023-09-12T07:02:06;99520.03;;;23.59;58.90
15817;BME280;8009;50.070;8.232;2023-09-12T07:04:35;99518.75;;;23.42;59.34
15817;BME280;8009;50.070;8.232;2023-09-12T07:07:03;99517.91;;;23.21;60.33
15817;BME280;8009;50.070;8.232;2023-09-12T07:09:32;99525.09;;;23.42;59.60
15817;BME280;8009;50.070;8.232;2023-09-12T07:12:02;99530.41;;;23.64;59.78
15817;BME280;8009;50.070;8.232;2023-09-12T07:14:31;99531.69;;;23.94;58.27
15817;BME280;8009;50.070;8.232;2023-09-12T07:16:59;99522.97;;;24.17;57.01
15817;BME280;8009;50.070;8.232;2023-09-12T07:54:37;99513.78;;;24.43;56.50
15817;BME280;8009;50.070;8.232;2023-09-12T08:02:51;99519.53;;;24.87;55.87
15817;BME280;8009;50.070;8.232;2023-09-12T08:05:19;99525.38;;;24.65;55.59
15817;BME280;8009;50.070;8.232;2023-09-12T08:07:48;99523.03;;;24.69;56.22
15817;BME280;8009;50.070;8.232;2023-09-12T08:10:19;99521.63;;;24.91;53.85
15817;BME280;8009;50.070;8.232;2023-09-12T08:12:47;99524.75;;;25.01;55.15
15817;BME280;8009;50.070;8.232;2023-09-12T08:15:15;99519.09;;;24.90;55.28
15817;BME280;8009;50.070;8.232;2023-09-12T08:17:44;99525.78;;;25.14;54.66
15817;BME280;8009;50.070;8.232;2023-09-12T08:20:17;99529.84;;;25.04;55.34
15817;BME280;8009;50.070;8.232;2023-09-12T08:22:45;99530.84;;;25.17;54.91
15817;BME280;8009;50.070;8.232;2023-09-12T08:25:14;99536.69;;;24.95;56.57
15817;BME280;8009;50.070;8.232;2023-09-12T08:27:46;99528.09;;;25.17;56.30
15817;BME280;8009;50.070;8.232;2023-09-12T08:30:15;99533.00;;;25.15;54.96
15817;BME280;8009;50.070;8.232;2023-09-12T08:32:44;99538.44;;;25.28;55.26
15817;BME280;8009;50.070;8.232;2023-09-12T08:38:27;99521.97;;;25.15;54.70
15817;BME280;8009;50.070;8.232;2023-09-12T08:40:56;99535.69;;;25.28;55.14
15817;BME280;8009;50.070;8.232;2023-09-12T08:43:27;99523.75;;;24.96;55.88
15817;BME280;8009;50.070;8.232;2023-09-12T08:45:56;99531.28;;;25.14;56.06
15817;BME280;8009;50.070;8.232;2023-09-12T08:48:25;99524.31;;;25.11;55.33
15817;BME280;8009;50.070;8.232;2023-09-12T08:50:54;99528.06;;;25.23;55.63
15817;BME280;8009;50.070;8.232;2023-09-12T08:53:23;99530.50;;;25.63;54.14
15817;BME280;8009;50.070;8.232;2023-09-12T08:55:51;99524.25;;;25.74;53.22
15817;BME280;8009;50.070;8.232;2023-09-12T08:58:20;99533.78;;;25.53;54.12
15817;BME280;8009;50.070;8.232;2023-09-12T09:00:51;99541.25;;;25.53;53.10
15817;BME280;8009;50.070;8.232;2023-09-12T09:03:26;99537.47;;;25.16;54.02
15817;BME280;8009;50.070;8.232;2023-09-12T09:05:55;99548.03;;;25.82;53.56
15817;BME280;8009;50.070;8.232;2023-09-12T09:08:26;99546.06;;;25.64;53.66
15817;BME280;8009;50.070;8.232;2023-09-12T09:10:57;99552.53;;;25.76;53.30
15817;BME280;8009;50.070;8.232;2023-09-12T09:13:28;99543.34;;;26.08;52.78
15817;BME280;8009;50.070;8.232;2023-09-12T09:16:14;99550.34;;;26.10;51.98
15817;BME280;8009;50.070;8.232;2023-09-12T09:18:51;99553.25;;;26.15;53.43
15817;BME280;8009;50.070;8.232;2023-09-12T09:21:21;99548.03;;;25.82;52.93
15817;BME280;8009;50.070;8.232;2023-09-12T09:23:51;99549.50;;;25.85;53.88
15817;BME280;8009;50.070;8.232;2023-09-12T09:26:20;99551.84;;;26.06;52.70
15817;BME280;8009;50.070;8.232;2023-09-12T09:29:02;99542.34;;;26.20;52.32
15817;BME280;8009;50.070;8.232;2023-09-12T09:31:33;99546.59;;;25.98;54.09
15817;BME280;8009;50.070;8.232;2023-09-12T09:34:03;99547.09;;;26.13;53.10
15817;BME280;8009;50.070;8.232;2023-09-12T09:36:32;99535.44;;;26.11;53.34
15817;BME280;8009;50.070;8.232;2023-09-12T09:39:02;99522.88;;;26.09;54.11
15817;BME280;8009;50.070;8.232;2023-09-12T09:41:31;99527.47;;;26.21;53.09
15817;BME280;8009;50.070;8.232;2023-09-12T09:44:00;99517.16;;;26.47;52.57
15817;BME280;8009;50.070;8.232;2023-09-12T09:46:29;99523.94;;;26.51;51.89
15817;BME280;8009;50.070;8.232;2023-09-12T09:49:01;99525.47;;;26.47;50.99
15817;BME280;8009;50.070;8.232;2023-09-12T09:51:31;99518.38;;;26.14;51.87
15817;BME280;8009;50.070;8.232;2023-09-12T09:54:03;99520.38;;;26.25;51.84
15817;BME280;8009;50.070;8.232;2023-09-12T09:56:45;99511.16;;;26.32;52.10
15817;BME280;8009;50.070;8.232;2023-09-12T09:59:14;99514.94;;;26.56;50.84
15817;BME280;8009;50.070;8.232;2023-09-12T10:01:44;99504.47;;;26.58;50.96
15817;BME280;8009;50.070;8.232;2023-09-12T10:04:16;99515.06;;;26.42;50.63
15817;BME280;8009;50.070;8.232;2023-09-12T10:06:46;99504.78;;;26.68;49.89
15817;BME280;8009;50.070;8.232;2023-09-12T10:09:16;99502.25;;;26.96;48.96
15817;BME280;8009;50.070;8.232;2023-09-12T10:11:46;99503.94;;;26.97;50.74
15817;BME280;8009;50.070;8.232;2023-09-12T10:14:19;99491.16;;;27.15;48.73
15817;BME280;8009;50.070;8.232;2023-09-12T10:16:48;99498.75;;;27.01;49.34
15817;BME280;8009;50.070;8.232;2023-09-12T10:19:23;99501.13;;;27.16;49.01
15817;BME280;8009;50.070;8.232;2023-09-12T10:21:57;99499.88;;;27.42;48.96
15817;BME280;8009;50.070;8.232;2023-09-12T10:24:30;99494.31;;;27.30;48.99
15817;BME280;8009;50.070;8.232;2023-09-12T10:27:00;99491.06;;;27.21;49.88
15817;BME280;8009;50.070;8.232;2023-09-12T10:29:31;99483.50;;;27.40;50.01
15817;BME280;8009;50.070;8.232;2023-09-12T10:32:06;99482.53;;;27.58;47.72
15817;BME280;8009;50.070;8.232;2023-09-12T10:34:59;99482.81;;;26.85;49.99
15817;BME280;8009;50.070;8.232;2023-09-12T10:38:00;99474.06;;;27.30;48.89
15817;BME280;8009;50.070;8.232;2023-09-12T10:40:44;99471.69;;;27.45;48.83
15817;BME280;8009;50.070;8.232;2023-09-12T10:43:15;99469.13;;;27.43;49.55
15817;BME280;8009;50.070;8.232;2023-09-12T10:45:51;99469.44;;;27.77;47.12
15817;BME280;8009;50.070;8.232;2023-09-12T10:48:49;99481.25;;;27.96;47.20
15817;BME280;8009;50.070;8.232;2023-09-12T10:51:40;99474.63;;;27.85;47.22
15817;BME280;8009;50.070;8.232;2023-09-12T10:54:40;99481.75;;;28.16;47.26
15817;BME280;8009;50.070;8.232;2023-09-12T10:57:28;99495.44;;;27.53;49.06
15817;BME280;8009;50.070;8.232;2023-09-12T11:00:15;99488.69;;;27.07;48.14
15817;BME280;8009;50.070;8.232;2023-09-12T11:02:47;99488.66;;;27.25;48.64
15817;BME280;8009;50.070;8.232;2023-09-12T11:05:37;99482.69;;;27.63;46.85
15817;BME280;8009;50.070;8.232;2023-09-12T11:08:10;99488.72;;;27.72;48.26
15817;BME280;8009;50.070;8.232;2023-09-12T11:11:19;99475.69;;;27.61;47.52
15817;BME280;8009;50.070;8.232;2023-09-12T11:14:05;99473.63;;;27.68;48.26
15817;BME280;8009;50.070;8.232;2023-09-12T11:16:35;99471.44;;;27.70;46.61
15817;BME280;8009;50.070;8.232;2023-09-12T11:19:17;99478.59;;;27.78;46.62
15817;BME280;8009;50.070;8.232;2023-09-12T11:21:50;99482.09;;;27.85;47.93
15817;BME280;8009;50.070;8.232;2023-09-12T11:24:20;99478.19;;;27.39;46.46
15817;BME280;8009;50.070;8.232;2023-09-12T11:27:04;99475.72;;;27.96;46.24
15817;BME280;8009;50.070;8.232;2023-09-12T11:29:38;99479.47;;;27.90;45.72
15817;BME280;8009;50.070;8.232;2023-09-12T11:32:09;99471.34;;;28.12;46.36
15817;BME280;8009;50.070;8.232;2023-09-12T11:34:41;99483.19;;;27.96;45.79
15817;BME280;8009;50.070;8.232;2023-09-12T11:37:32;99479.06;;;28.22;45.14
15817;BME280;8009;50.070;8.232;2023-09-12T11:49:53;99471.34;;;28.76;44.91
15817;BME280;8009;50.070;8.232;2023-09-12T11:53:14;99467.06;;;28.56;46.37
15817;BME280;8009;50.070;8.232;2023-09-12T11:55:52;99470.47;;;28.47;46.94
15817;BME280;8009;50.070;8.232;2023-09-12T11:58:41;99469.25;;;28.83;45.02
15817;BME280;8009;50.070;8.232;2023-09-12T12:01:12;99463.53;;;29.01;46.21
15817;BME280;8009;50.070;8.232;2023-09-12T12:03:49;99469.81;;;28.97;46.07
15817;BME280;8009;50.070;8.232;2023-09-12T12:06:21;99460.78;;;28.89;45.34
15817;BME280;8009;50.070;8.232;2023-09-12T12:09:15;99463.81;;;29.17;45.72
15817;BME280;8009;50.070;8.232;2023-09-12T12:11:46;99465.91;;;29.09;45.34
15817;BME280;8009;50.070;8.232;2023-09-12T12:14:18;99463.31;;;29.36;45.21
15817;BME280;8009;50.070;8.232;2023-09-12T12:16:47;99450.31;;;29.25;45.49
15817;BME280;8009;50.070;8.232;2023-09-12T12:19:19;99446.25;;;28.99;45.34
15817;BME280;8009;50.070;8.232;2023-09-12T12:21:48;99454.81;;;28.69;44.91
15817;BME280;8009;50.070;8.232;2023-09-12T12:24:16;99441.72;;;28.81;45.60
15817;BME280;8009;50.070;8.232;2023-09-12T12:26:50;99437.38;;;28.85;45.48
15817;BME280;8009;50.070;8.232;2023-09-12T12:29:18;99441.53;;;29.00;46.57
15817;BME280;8009;50.070;8.232;2023-09-12T12:31:47;99432.47;;;29.04;45.14
15817;BME280;8009;50.070;8.232;2023-09-12T12:34:24;99435.31;;;29.09;45.86
15817;BME280;8009;50.070;8.232;2023-09-12T12:36:54;99430.28;;;28.95;47.03
15817;BME280;8009;50.070;8.232;2023-09-12T12:39:26;99427.25;;;28.96;45.57
15817;BME280;8009;50.070;8.232;2023-09-12T12:41:58;99433.00;;;28.89;45.84
15817;BME280;8009;50.070;8.232;2023-09-12T12:44:34;99433.53;;;29.03;44.36
15817;BME280;8009;50.070;8.232;2023-09-12T12:47:08;99427.06;;;28.98;45.18
15817;BME280;8009;50.070;8.232;2023-09-12T12:49:41;99430.69;;;28.86;45.35
15817;BME280;8009;50.070;8.232;2023-09-12T12:52:12;99430.69;;;28.86;45.13
15817;BME280;8009;50.070;8.232;2023-09-12T12:54:42;99434.16;;;28.94;45.53
15817;BME280;8009;50.070;8.232;2023-09-12T12:57:11;99427.25;;;29.25;44.03
15817;BME280;8009;50.070;8.232;2023-09-12T12:59:44;99421.56;;;29.03;45.56
15817;BME280;8009;50.070;8.232;2023-09-12T13:02:13;99422.09;;;29.17;45.26
15817;BME280;8009;50.070;8.232;2023-09-12T13:04:44;99422.78;;;29.24;44.92
15817;BME280;8009;50.070;8.232;2023-09-12T13:07:13;99416.97;;;29.25;44.65
15817;BME280;8009;50.070;8.232;2023-09-12T13:09:54;99408.81;;;29.35;44.13
15817;BME280;8009;50.070;8.232;2023-09-12T13:12:25;99418.50;;;29.16;45.05
15817;BME280;8009;50.070;8.232;2023-09-12T13:18:29;99401.13;;;29.59;44.34
15817;BME280;8009;50.070;8.232;2023-09-12T13:21:00;99398.94;;;29.45;44.64
15817;BME280;8009;50.070;8.232;2023-09-12T13:23:32;99396.31;;;29.21;45.34
15817;BME280;8009;50.070;8.232;2023-09-12T13:26:01;99395.56;;;29.43;45.15
15817;BME280;8009;50.070;8.232;2023-09-12T13:32:00;99396.50;;;28.98;44.99
15817;BME280;8009;50.070;8.232;2023-09-12T13:34:30;99388.72;;;29.00;47.47
15817;BME280;8009;50.070;8.232;2023-09-12T13:37:01;99386.22;;;29.32;45.21
15817;BME280;8009;50.070;8.232;2023-09-12T13:39:30;99387.72;;;29.23;44.70
15817;BME280;8009;50.070;8.232;2023-09-12T13:42:00;99390.94;;;29.31;46.14
15817;BME280;8009;50.070;8.232;2023-09-12T13:44:31;99389.66;;;29.22;46.28
15817;BME280;8009;50.070;8.232;2023-09-12T13:46:59;99394.09;;;28.89;46.25
15817;BME280;8009;50.070;8.232;2023-09-12T13:49:27;99384.22;;;29.27;44.98
15817;BME280;8009;50.070;8.232;2023-09-12T13:51:56;99388.91;;;29.10;45.49
15817;BME280;8009;50.070;8.232;2023-09-12T13:54:27;99384.88;;;29.34;44.15
15817;BME280;8009;50.070;8.232;2023-09-12T13:56:56;99387.91;;;29.33;45.16
15817;BME280;8009;50.070;8.232;2023-09-12T13:59:32;99386.06;;;29.38;43.81
15817;BME280;8009;50.070;8.232;2023-09-12T14:02:00;99388.06;;;29.60;43.95
15817;BME280;8009;50.070;8.232;2023-09-12T14:04:32;99381.56;;;29.37;44.19
15817;BME280;8009;50.070;8.232;2023-09-12T14:07:00;99380.47;;;29.55;43.90
15817;BME280;8009;50.070;8.232;2023-09-12T14:09:31;99383.44;;;29.66;43.40
15817;BME280;8009;50.070;8.232;2023-09-12T14:12:05;99382.22;;;29.78;43.81
15817;BME280;8009;50.070;8.232;2023-09-12T14:14:36;99372.25;;;29.82;43.74
15817;BME280;8009;50.070;8.232;2023-09-12T14:17:04;99368.59;;;29.43;44.15
15817;BME280;8009;50.070;8.232;2023-09-12T14:19:33;99377.53;;;29.62;43.57
15817;BME280;8009;50.070;8.232;2023-09-12T14:22:03;99369.91;;;29.74;43.16
15817;BME280;8009;50.070;8.232;2023-09-12T14:24:34;99369.75;;;29.64;44.64
15817;BME280;8009;50.070;8.232;2023-09-12T14:27:05;99366.41;;;29.62;44.54
15817;BME280;8009;50.070;8.232;2023-09-12T14:29:34;99357.66;;;29.36;44.34
15817;BME280;8009;50.070;8.232;2023-09-12T14:32:05;99364.03;;;29.37;44.28
15817;BME280;8009;50.070;8.232;2023-09-12T14:34:37;99362.19;;;29.26;44.78
15817;BME280;8009;50.070;8.232;2023-09-12T14:37:08;99353.19;;;29.35;44.44
15817;BME280;8009;50.070;8.232;2023-09-12T14:39:40;99351.91;;;29.43;44.51
15817;BME280;8009;50.070;8.232;2023-09-12T14:42:16;99361.38;;;29.42;45.06
15817;BME280;8009;50.070;8.232;2023-09-12T14:44:49;99361.38;;;29.42;44.01
15817;BME280;8009;50.070;8.232;2023-09-12T14:47:19;99363.59;;;29.45;44.75
15817;BME280;8009;50.070;8.232;2023-09-12T14:49:47;99356.78;;;29.53;44.56
15817;BME280;8009;50.070;8.232;2023-09-12T14:52:19;99346.03;;;29.78;43.79
15817;BME280;8009;50.070;8.232;2023-09-12T14:55:07;99346.31;;;29.77;43.69
15817;BME280;8009;50.070;8.232;2023-09-12T14:57:38;99345.00;;;29.62;43.67
15817;BME280;8009;50.070;8.232;2023-09-12T15:01:05;99340.78;;;29.60;44.65
15817;BME280;8009;50.070;8.232;2023-09-12T15:03:39;99344.16;;;29.62;45.70
15817;BME280;8009;50.070;8.232;2023-09-12T15:06:19;99335.56;;;29.47;46.19
15817;BME280;8009;50.070;8.232;2023-09-12T15:09:16;99336.31;;;29.59;46.16
15817;BME280;8009;50.070;8.232;2023-09-12T15:12:07;99323.09;;;29.88;45.89
15817;BME280;8009;50.070;8.232;2023-09-12T15:14:44;99326.41;;;29.68;46.90
15817;BME280;8009;50.070;8.232;2023-09-12T15:17:27;99311.84;;;29.61;47.17
15817;BME280;8009;50.070;8.232;2023-09-12T15:19:56;99318.84;;;29.63;47.08
15817;BME280;8009;50.070;8.232;2023-09-12T15:22:36;99308.13;;;29.72;46.68
15817;BME280;8009;50.070;8.232;2023-09-12T15:25:29;99320.28;;;29.49;47.78
15817;BME280;8009;50.070;8.232;2023-09-12T15:28:30;99311.56;;;29.41;47.51
15817;BME280;8009;50.070;8.232;2023-09-12T15:31:08;99299.97;;;29.27;47.41
15817;BME280;8009;50.070;8.232;2023-09-12T15:33:37;99298.31;;;29.48;46.89
15817;BME280;8009;50.070;8.232;2023-09-12T15:36:09;99304.81;;;29.36;46.92
15817;BME280;8009;50.070;8.232;2023-09-12T15:38:38;99311.09;;;29.10;48.28
15817;BME280;8009;50.070;8.232;2023-09-12T15:41:06;99309.56;;;28.85;48.96
15817;BME280;8009;50.070;8.232;2023-09-12T15:43:37;99310.38;;;28.52;49.47
15817;BME280;8009;50.070;8.232;2023-09-12T15:46:06;99303.75;;;28.70;48.65
15817;BME280;8009;50.070;8.232;2023-09-12T15:48:37;99307.50;;;28.64;48.64
15817;BME280;8009;50.070;8.232;2023-09-12T15:51:05;99304.97;;;28.46;49.28
15817;BME280;8009;50.070;8.232;2023-09-12T15:53:33;99311.69;;;28.21;50.30
15817;BME280;8009;50.070;8.232;2023-09-12T15:56:02;99320.44;;;28.41;50.37
15817;BME280;8009;50.070;8.232;2023-09-12T15:58:32;99321.41;;;28.35;50.44
15817;BME280;8009;50.070;8.232;2023-09-12T16:01:03;99314.75;;;28.08;51.48
15817;BME280;8009;50.070;8.232;2023-09-12T16:03:34;99319.59;;;28.41;50.57
15817;BME280;8009;50.070;8.232;2023-09-12T16:06:02;99317.31;;;28.38;50.76
15817;BME280;8009;50.070;8.232;2023-09-12T16:08:31;99320.03;;;28.21;50.93
15817;BME280;8009;50.070;8.232;2023-09-12T16:10:59;99315.25;;;28.05;49.81